createdAt,value
2018-03-04T00:00:18.242Z,18.98
2018-03-04T00:01:20.742Z,19.37
2018-03-04T00:02:24.050Z,20.20
2018-03-04T00:03:26.560Z,20.80
2018-03-04T00:04:29.047Z,20.75
2018-03-04T00:05:31.544Z,21.15
2018-03-04T00:06:34.838Z,19.45
2018-03-04T00:07:37.679Z,21.15
2018-03-04T00:08:42.119Z,20.37
2018-03-04T00:09:44.628Z,19.65
2018-03-04T00:10:47.892Z,19.60
2018-03-04T00:11:50.430Z,20.30
2018-03-04T00:12:52.914Z,19.62
2018-03-04T00:13:56.215Z,20.62
2018-03-04T00:14:58.716Z,21.05
2018-03-04T00:16:01.247Z,21.40
2018-03-04T00:17:03.736Z,21.00
2018-03-04T00:18:07.353Z,22.00
2018-03-04T00:19:09.935Z,20.60
2018-03-04T00:20:12.480Z,20.62
2018-03-04T00:21:14.928Z,20.70
2018-03-04T00:22:17.435Z,20.95
2018-03-04T00:23:19.931Z,21.00
2018-03-04T00:24:22.471Z,19.98
2018-03-04T00:25:24.958Z,20.05
2018-03-04T00:26:27.444Z,19.75
2018-03-04T00:27:29.975Z,20.20
2018-03-04T00:28:32.490Z,20.42
2018-03-04T00:29:34.991Z,21.20
2018-03-04T00:30:37.513Z,20.48
2018-03-04T00:31:40.006Z,21.50
2018-03-04T00:32:42.487Z,20.20
2018-03-04T00:33:44.987Z,20.40
2018-03-04T00:34:47.487Z,19.45
2018-03-04T00:35:50.748Z,20.98
2018-03-04T00:36:54.208Z,20.25
2018-03-04T00:37:56.707Z,19.80
2018-03-04T00:38:59.971Z,22.30
2018-03-04T00:40:02.459Z,20.60
2018-03-04T00:41:05.741Z,22.08
2018-03-04T00:42:08.409Z,21.40
2018-03-04T00:43:10.904Z,22.02
2018-03-04T00:44:13.393Z,20.50
2018-03-04T00:45:16.671Z,20.98
2018-03-04T00:46:19.197Z,20.33
2018-03-04T00:47:21.705Z,20.73
2018-03-04T00:48:24.959Z,22.08
2018-03-04T00:49:27.520Z,21.27
2018-03-04T00:50:30.548Z,21.52
2018-03-04T00:51:33.041Z,19.37
2018-03-04T00:52:35.588Z,20.58
2018-03-04T00:53:38.093Z,20.65
2018-03-04T00:54:45.788Z,21.48
2018-03-04T00:55:48.322Z,20.05
2018-03-04T00:56:50.790Z,19.92
2018-03-04T00:57:53.279Z,21.15
2018-03-04T00:58:55.851Z,19.50
2018-03-04T00:59:59.176Z,23.08
2018-03-04T01:01:02.554Z,20.17
2018-03-04T01:02:05.051Z,20.27
2018-03-04T01:03:08.297Z,21.35
2018-03-04T01:04:11.560Z,21.20
2018-03-04T01:05:15.788Z,21.58
2018-03-04T01:06:19.060Z,21.75
2018-03-04T01:07:21.584Z,20.30
2018-03-04T01:08:24.112Z,21.10
2018-03-04T01:09:26.621Z,21.95
2018-03-04T01:10:30.163Z,21.45
2018-03-04T01:11:33.516Z,21.35
2018-03-04T01:12:36.100Z,20.90
2018-03-04T01:13:38.656Z,22.90
2018-03-04T01:14:41.928Z,21.10
2018-03-04T01:15:44.418Z,20.45
2018-03-04T01:16:46.937Z,20.67
2018-03-04T01:17:49.422Z,21.85
2018-03-04T01:18:52.864Z,21.10
2018-03-04T01:19:55.335Z,19.62
2018-03-04T01:20:57.928Z,21.00
2018-03-04T01:22:00.444Z,22.17
2018-03-04T01:23:02.982Z,22.08
2018-03-04T01:24:05.480Z,21.87
2018-03-04T01:25:08.005Z,21.87
2018-03-04T01:26:10.534Z,23.40
2018-03-04T01:27:13.022Z,21.85
2018-03-04T01:28:15.520Z,21.70
2018-03-04T01:29:18.182Z,21.95
2018-03-04T01:30:21.512Z,21.55
2018-03-04T01:31:24.756Z,22.17
2018-03-04T01:32:28.023Z,22.85
2018-03-04T01:33:31.272Z,22.05
2018-03-04T01:34:33.790Z,22.67
2018-03-04T01:35:37.906Z,21.55
2018-03-04T01:36:40.395Z,21.80
2018-03-04T01:37:43.545Z,21.65
2018-03-04T01:38:46.061Z,22.58
2018-03-04T01:39:48.592Z,20.85
2018-03-04T01:40:51.111Z,23.02
2018-03-04T01:41:53.592Z,23.05
2018-03-04T01:42:56.084Z,20.92
2018-03-04T01:43:58.573Z,21.23
2018-03-04T01:45:01.124Z,21.50
2018-03-04T01:46:03.632Z,22.45
2018-03-04T01:47:06.872Z,20.52
2018-03-04T01:48:10.129Z,22.65
2018-03-04T01:49:12.666Z,21.65
2018-03-04T01:50:15.232Z,23.20
2018-03-04T01:51:17.752Z,22.33
2018-03-04T01:52:20.245Z,22.35
2018-03-04T01:53:22.717Z,22.95
2018-03-04T01:54:25.971Z,22.05
2018-03-04T01:55:28.463Z,23.00
2018-03-04T01:56:30.992Z,23.48
2018-03-04T01:57:33.471Z,22.83
2018-03-04T01:58:35.960Z,22.50
2018-03-04T01:59:39.200Z,22.13
2018-03-04T02:00:41.698Z,21.40
2018-03-04T02:01:44.194Z,21.62
2018-03-04T02:02:47.442Z,21.67
2018-03-04T02:03:50.017Z,21.45
2018-03-04T02:04:52.632Z,23.08
2018-03-04T02:05:55.116Z,22.52
2018-03-04T02:06:57.794Z,22.70
2018-03-04T02:08:00.265Z,21.15
2018-03-04T02:09:02.733Z,23.17
2018-03-04T02:10:05.208Z,21.33
2018-03-04T02:11:07.695Z,21.70
2018-03-04T02:12:10.187Z,21.27
2018-03-04T02:13:12.690Z,22.37
2018-03-04T02:14:15.220Z,22.52
2018-03-04T02:15:17.712Z,22.20
2018-03-04T02:16:20.175Z,21.73
2018-03-04T02:17:22.687Z,21.80
2018-03-04T02:18:25.545Z,23.92
2018-03-04T02:19:28.019Z,22.77
2018-03-04T02:20:30.518Z,21.33
2018-03-04T02:21:32.998Z,22.15
2018-03-04T02:22:35.613Z,22.77
2018-03-04T02:23:38.839Z,22.42
2018-03-04T02:24:42.098Z,22.30
2018-03-04T02:25:45.358Z,21.70
2018-03-04T02:26:47.847Z,23.15
2018-03-04T02:27:51.099Z,22.90
2018-03-04T02:28:54.350Z,22.23
2018-03-04T02:29:57.626Z,23.02
2018-03-04T02:31:00.158Z,23.05
2018-03-04T02:32:02.662Z,24.33
2018-03-04T02:33:05.143Z,21.83
2018-03-04T02:34:07.606Z,24.70
2018-03-04T02:35:10.100Z,22.85
2018-03-04T02:36:13.389Z,22.08
2018-03-04T02:37:15.920Z,22.20
2018-03-04T02:38:18.385Z,23.35
2018-03-04T02:39:20.898Z,23.40
2018-03-04T02:40:23.369Z,23.12
2018-03-04T02:41:26.630Z,23.23
2018-03-04T02:42:29.198Z,22.10
2018-03-04T02:43:31.662Z,23.20
2018-03-04T02:44:34.919Z,22.62
2018-03-04T02:45:37.467Z,22.15
2018-03-04T02:46:39.978Z,24.55
2018-03-04T02:47:42.470Z,23.05
2018-03-04T02:48:46.129Z,24.25
2018-03-04T02:49:49.442Z,23.77
2018-03-04T02:50:51.958Z,23.00
2018-03-04T02:51:54.435Z,23.38
2018-03-04T02:52:57.010Z,24.55
2018-03-04T02:53:59.501Z,23.77
2018-03-04T02:55:02.016Z,24.33
2018-03-04T02:56:04.516Z,23.35
2018-03-04T02:57:07.758Z,23.05
2018-03-04T02:58:11.038Z,22.27
2018-03-04T02:59:13.551Z,24.37
2018-03-04T03:00:16.031Z,24.52
2018-03-04T03:01:18.531Z,22.67
2018-03-04T03:02:21.038Z,23.87
2018-03-04T03:03:24.089Z,24.90
2018-03-04T03:04:26.576Z,22.75
2018-03-04T03:05:29.842Z,23.73
2018-03-04T03:06:32.406Z,23.85
2018-03-04T03:07:34.878Z,22.25
2018-03-04T03:08:37.342Z,23.25
2018-03-04T03:09:39.844Z,22.35
2018-03-04T03:10:42.323Z,23.38
2018-03-04T03:11:44.806Z,22.83
2018-03-04T03:12:47.326Z,23.20
2018-03-04T03:13:49.934Z,23.30
2018-03-04T03:14:52.430Z,23.42
2018-03-04T03:15:55.735Z,23.02
2018-03-04T03:16:58.230Z,25.00
2018-03-04T03:18:00.710Z,22.75
2018-03-04T03:19:03.257Z,24.20
2018-03-04T03:20:06.505Z,23.55
2018-03-04T03:21:08.973Z,22.95
2018-03-04T03:22:11.440Z,21.85
2018-03-04T03:23:14.010Z,23.30
2018-03-04T03:24:16.517Z,22.23
2018-03-04T03:25:20.471Z,23.75
2018-03-04T03:26:23.730Z,24.35
2018-03-04T03:27:26.199Z,23.58
2018-03-04T03:28:28.786Z,23.98
2018-03-04T03:29:31.255Z,22.70
2018-03-04T03:30:33.846Z,22.98
2018-03-04T03:31:36.335Z,22.45
2018-03-04T03:32:39.570Z,24.45
2018-03-04T03:33:42.154Z,24.12
2018-03-04T03:34:44.650Z,23.65
2018-03-04T03:35:47.151Z,23.80
2018-03-04T03:36:49.612Z,24.98
2018-03-04T03:37:52.083Z,25.17
2018-03-04T03:38:54.547Z,24.70
2018-03-04T03:39:57.090Z,24.65
2018-03-04T03:40:59.556Z,24.10
2018-03-04T03:42:02.416Z,24.73
2018-03-04T03:43:05.642Z,23.73
2018-03-04T03:44:08.920Z,24.92
2018-03-04T03:45:11.435Z,24.85
2018-03-04T03:46:14.671Z,23.90
2018-03-04T03:47:17.936Z,24.50
2018-03-04T03:48:20.410Z,24.90
2018-03-04T03:49:23.646Z,24.92
2018-03-04T03:50:26.160Z,24.23
2018-03-04T03:51:28.696Z,23.60
2018-03-04T03:52:31.172Z,26.27
2018-03-04T03:53:33.661Z,23.87
2018-03-04T03:54:36.936Z,23.30
2018-03-04T03:55:40.293Z,25.58
2018-03-04T03:56:42.823Z,25.02
2018-03-04T03:57:45.327Z,24.17
2018-03-04T03:58:48.577Z,25.25
2018-03-04T03:59:51.138Z,24.15
2018-03-04T04:00:53.760Z,23.60
2018-03-04T04:01:56.232Z,23.60
2018-03-04T04:02:59.483Z,23.27
2018-03-04T04:04:02.747Z,24.45
2018-03-04T04:05:05.243Z,23.23
2018-03-04T04:06:08.516Z,24.35
2018-03-04T04:07:11.000Z,24.98
2018-03-04T04:08:13.474Z,25.27
2018-03-04T04:09:15.967Z,20.85
2018-03-04T04:10:19.202Z,26.90
2018-03-04T04:11:22.430Z,24.12
2018-03-04T04:12:24.914Z,24.33
2018-03-04T04:13:27.467Z,24.85
2018-03-04T04:14:29.969Z,25.88
2018-03-04T04:15:32.434Z,25.35
2018-03-04T04:16:36.412Z,24.75
2018-03-04T04:17:39.659Z,24.37
2018-03-04T04:18:42.890Z,24.85
2018-03-04T04:19:46.186Z,25.12
2018-03-04T04:20:48.663Z,22.98
2018-03-04T04:21:51.884Z,24.37
2018-03-04T04:22:54.608Z,24.50
2018-03-04T04:23:57.078Z,24.40
2018-03-04T04:24:59.611Z,23.65
2018-03-04T04:26:02.077Z,23.33
2018-03-04T04:27:04.555Z,24.67
2018-03-04T04:28:07.643Z,24.25
2018-03-04T04:29:10.222Z,22.30
2018-03-04T04:30:12.721Z,25.80
2018-03-04T04:31:15.645Z,25.50
2018-03-04T04:32:18.928Z,25.55
2018-03-04T04:33:21.788Z,23.98
2018-03-04T04:34:24.257Z,24.48
2018-03-04T04:35:27.494Z,25.23
2018-03-04T04:36:30.733Z,24.92
2018-03-04T04:37:33.236Z,24.58
2018-03-04T04:38:36.105Z,24.30
2018-03-04T04:39:39.373Z,24.67
2018-03-04T04:40:41.851Z,24.65
2018-03-04T04:41:44.597Z,25.55
2018-03-04T04:42:47.055Z,25.02
2018-03-04T04:43:49.555Z,25.17
2018-03-04T04:44:52.817Z,25.83
2018-03-04T04:45:55.448Z,26.40
2018-03-04T04:46:57.938Z,25.15
2018-03-04T04:48:00.408Z,25.45
2018-03-04T04:49:02.958Z,24.33
2018-03-04T04:50:05.564Z,25.23
2018-03-04T04:51:08.053Z,24.92
2018-03-04T04:52:11.287Z,24.98
2018-03-04T04:53:14.563Z,25.25
2018-03-04T04:54:17.063Z,24.85
2018-03-04T04:55:20.576Z,24.60
2018-03-04T04:56:23.811Z,26.58
2018-03-04T04:57:26.311Z,25.12
2018-03-04T04:58:28.793Z,25.58
2018-03-04T04:59:31.283Z,24.60
2018-03-04T05:00:33.889Z,25.70
2018-03-04T05:01:36.367Z,24.80
2018-03-04T05:02:38.833Z,25.70
2018-03-04T05:03:41.297Z,25.48
2018-03-04T05:04:43.777Z,24.85
2018-03-04T05:05:46.326Z,23.40
2018-03-04T05:06:48.808Z,25.00
2018-03-04T05:07:51.276Z,24.58
2018-03-04T05:08:53.738Z,24.25
2018-03-04T05:09:56.226Z,24.02
2018-03-04T05:10:58.731Z,25.80
2018-03-04T05:12:01.217Z,24.52
2018-03-04T05:13:03.726Z,26.23
2018-03-04T05:14:06.457Z,23.65
2018-03-04T05:15:08.930Z,25.70
2018-03-04T05:16:12.279Z,24.85
2018-03-04T05:17:15.569Z,25.20
2018-03-04T05:18:18.048Z,26.70
2018-03-04T05:19:20.572Z,25.67
2018-03-04T05:20:23.057Z,25.15
2018-03-04T05:21:25.530Z,24.92
2018-03-04T05:22:28.004Z,23.83
2018-03-04T05:23:30.579Z,24.20
2018-03-04T05:24:33.118Z,25.55
2018-03-04T05:25:35.586Z,25.60
2018-03-04T05:26:38.092Z,26.10
2018-03-04T05:27:40.586Z,25.10
2018-03-04T05:28:43.076Z,25.40
2018-03-04T05:29:45.562Z,24.70
2018-03-04T05:30:48.038Z,24.87
2018-03-04T05:31:51.303Z,24.48
2018-03-04T05:32:54.602Z,23.60
2018-03-04T05:33:57.072Z,23.15
2018-03-04T05:34:59.575Z,24.15
2018-03-04T05:36:02.863Z,25.33
2018-03-04T05:37:05.360Z,24.27
2018-03-04T05:38:08.171Z,24.83
2018-03-04T05:39:11.390Z,25.62
2018-03-04T05:40:13.870Z,26.00
2018-03-04T05:41:16.351Z,24.45
2018-03-04T05:42:18.859Z,23.92
2018-03-04T05:43:21.356Z,25.15
2018-03-04T05:44:23.850Z,25.98
2018-03-04T05:45:27.074Z,25.20
2018-03-04T05:46:30.366Z,24.52
2018-03-04T05:47:32.824Z,27.85
2018-03-04T05:48:35.391Z,25.08
2018-03-04T05:49:37.865Z,26.33
2018-03-04T05:50:40.334Z,23.55
2018-03-04T05:51:42.807Z,23.77
2018-03-04T05:52:45.702Z,25.92
2018-03-04T05:53:48.219Z,26.87
2018-03-04T05:54:51.463Z,25.80
2018-03-04T05:55:54.727Z,25.98
2018-03-04T05:56:57.190Z,26.33
2018-03-04T05:57:59.679Z,25.42
2018-03-04T05:59:02.172Z,25.75
2018-03-04T06:00:05.410Z,26.10
2018-03-04T06:01:08.674Z,25.33
2018-03-04T06:02:11.216Z,25.75
2018-03-04T06:03:13.835Z,26.35
2018-03-04T06:04:16.307Z,24.67
2018-03-04T06:05:18.806Z,25.40
2018-03-04T06:06:21.311Z,24.90
2018-03-04T06:07:23.794Z,25.48
2018-03-04T06:08:26.296Z,25.98
2018-03-04T06:09:28.789Z,24.37
2018-03-04T06:10:31.321Z,25.90
2018-03-04T06:11:33.807Z,25.62
2018-03-04T06:12:37.060Z,25.90
2018-03-04T06:13:40.328Z,25.60
2018-03-04T06:14:42.829Z,24.08
2018-03-04T06:15:46.089Z,22.87
2018-03-04T06:16:48.605Z,26.23
2018-03-04T06:17:51.081Z,24.33
2018-03-04T06:18:53.586Z,24.63
2018-03-04T06:19:56.074Z,24.77
2018-03-04T06:20:59.376Z,26.27
2018-03-04T06:22:01.875Z,24.83
2018-03-04T06:23:04.877Z,22.83
2018-03-04T06:24:08.519Z,25.50
2018-03-04T06:25:11.789Z,24.92
2018-03-04T06:26:14.267Z,24.23
2018-03-04T06:27:16.807Z,25.62
2018-03-04T06:28:20.785Z,25.40
2018-03-04T06:29:24.061Z,26.15
2018-03-04T06:30:26.586Z,23.62
2018-03-04T06:31:29.058Z,24.15
2018-03-04T06:32:32.345Z,24.42
2018-03-04T06:33:34.848Z,24.20
2018-03-04T06:34:37.312Z,24.20
2018-03-04T06:35:39.780Z,25.25
2018-03-04T06:36:43.029Z,22.90
2018-03-04T06:37:46.304Z,24.42
2018-03-04T06:38:48.795Z,23.73
2018-03-04T06:39:51.280Z,24.87
2018-03-04T06:40:53.743Z,25.85
2018-03-04T06:41:56.981Z,24.42
2018-03-04T06:43:00.257Z,24.08
2018-03-04T06:44:02.757Z,23.98
2018-03-04T06:45:06.018Z,24.30
2018-03-04T06:46:08.498Z,24.23
2018-03-04T06:47:10.959Z,27.08
2018-03-04T06:48:14.306Z,25.55
2018-03-04T06:49:16.773Z,22.95
2018-03-04T06:50:19.265Z,23.58
2018-03-04T06:51:21.783Z,23.77
2018-03-04T06:52:25.022Z,24.40
2018-03-04T06:53:28.368Z,25.00
2018-03-04T06:54:31.660Z,23.35
2018-03-04T06:55:34.094Z,24.50
2018-03-04T06:56:36.573Z,22.92
2018-03-04T06:57:39.184Z,25.10
2018-03-04T06:58:41.694Z,25.70
2018-03-04T06:59:44.939Z,25.05
2018-03-04T07:00:48.250Z,25.60
2018-03-04T07:01:50.785Z,25.50
2018-03-04T07:02:53.249Z,25.15
2018-03-04T07:03:55.760Z,23.70
2018-03-04T07:04:58.998Z,24.90
2018-03-04T07:06:02.247Z,23.33
2018-03-04T07:07:05.484Z,25.15
2018-03-04T07:08:08.764Z,26.00
2018-03-04T07:09:11.246Z,24.83
2018-03-04T07:10:13.747Z,23.27
2018-03-04T07:11:16.230Z,23.87
2018-03-04T07:12:18.751Z,23.73
2018-03-04T07:13:21.262Z,22.75
2018-03-04T07:14:24.509Z,23.92
2018-03-04T07:15:27.737Z,25.37
2018-03-04T07:16:30.977Z,22.55
2018-03-04T07:17:34.215Z,24.45
2018-03-04T07:18:37.486Z,25.90
2018-03-04T07:19:40.754Z,23.45
2018-03-04T07:20:43.946Z,23.50
2018-03-04T07:21:46.510Z,25.50
2018-03-04T07:22:48.976Z,23.92
2018-03-04T07:23:51.567Z,25.05
2018-03-04T07:24:54.054Z,24.35
2018-03-04T07:25:57.294Z,26.75
2018-03-04T07:27:00.589Z,23.85
2018-03-04T07:28:03.215Z,25.48
2018-03-04T07:29:05.739Z,24.63
2018-03-04T07:30:08.222Z,25.02
2018-03-04T07:31:11.590Z,25.52
2018-03-04T07:32:14.091Z,25.12
2018-03-04T07:33:16.590Z,25.25
2018-03-04T07:34:19.172Z,25.10
2018-03-04T07:35:21.662Z,25.17
2018-03-04T07:36:24.899Z,24.10
2018-03-04T07:37:27.462Z,23.85
2018-03-04T07:38:30.016Z,23.65
2018-03-04T07:39:32.514Z,23.80
2018-03-04T07:40:34.994Z,23.42
2018-03-04T07:41:37.462Z,23.70
2018-03-04T07:42:39.954Z,20.80
2018-03-04T07:43:42.426Z,23.70
2018-03-04T07:44:44.934Z,24.55
2018-03-04T07:45:47.474Z,23.92
2018-03-04T07:46:49.938Z,26.23
2018-03-04T07:47:52.537Z,22.58
2018-03-04T07:48:55.052Z,24.87
2018-03-04T07:49:57.598Z,23.45
2018-03-04T07:51:00.291Z,25.17
2018-03-04T07:52:03.584Z,27.02
2018-03-04T07:53:06.118Z,26.23
2018-03-04T07:54:08.649Z,25.40
2018-03-04T07:55:11.144Z,24.52
2018-03-04T07:56:13.701Z,24.85
2018-03-04T07:57:16.730Z,24.70
2018-03-04T07:58:19.338Z,27.60
2018-03-04T07:59:21.859Z,25.10
2018-03-04T08:00:24.384Z,25.90
2018-03-04T08:01:26.910Z,25.15
2018-03-04T08:02:30.280Z,24.80
2018-03-04T08:03:32.798Z,26.87
2018-03-04T08:04:35.324Z,25.80
2018-03-04T08:05:37.790Z,26.85
2018-03-04T08:06:41.064Z,24.98
2018-03-04T08:07:43.571Z,26.12
2018-03-04T08:08:46.832Z,25.98
2018-03-04T08:09:49.294Z,25.15
2018-03-04T08:10:51.842Z,25.25
2018-03-04T08:11:55.130Z,25.42
2018-03-04T08:12:57.614Z,24.85
2018-03-04T08:14:00.887Z,24.65
2018-03-04T08:15:03.375Z,26.58
2018-03-04T08:16:05.849Z,27.35
2018-03-04T08:17:08.364Z,25.62
2018-03-04T08:18:10.833Z,25.90
2018-03-04T08:19:13.341Z,25.88
2018-03-04T08:20:15.828Z,26.25
2018-03-04T08:21:19.086Z,24.87
2018-03-04T08:22:21.574Z,25.10
2018-03-04T08:23:24.839Z,24.00
2018-03-04T08:24:39.356Z,26.02
2018-03-04T08:25:41.820Z,24.52
2018-03-04T08:26:57.759Z,24.50
2018-03-04T08:28:12.303Z,25.10
2018-03-04T08:29:14.812Z,24.65
2018-03-04T08:30:18.066Z,26.00
2018-03-04T08:31:22.112Z,23.75
2018-03-04T08:32:25.409Z,26.27
2018-03-04T08:33:27.874Z,26.80
2018-03-04T08:34:31.416Z,25.58
2018-03-04T08:35:34.695Z,27.83
2018-03-04T08:36:37.180Z,26.27
2018-03-04T08:37:39.672Z,27.48
2018-03-04T08:38:42.164Z,26.90
2018-03-04T08:39:44.684Z,28.58
2018-03-04T08:40:47.230Z,28.02
2018-03-04T08:41:49.761Z,27.70
2018-03-04T08:42:52.234Z,28.23
2018-03-04T08:43:54.759Z,27.67
2018-03-04T08:44:58.076Z,28.80
2018-03-04T08:46:01.396Z,26.05
2018-03-04T08:47:03.882Z,27.58
2018-03-04T08:48:06.470Z,28.62
2018-03-04T08:49:08.984Z,30.00
2018-03-04T08:50:11.500Z,29.58
2018-03-04T08:51:14.029Z,28.48
2018-03-04T08:52:16.555Z,28.52
2018-03-04T08:53:19.021Z,27.25
2018-03-04T08:54:21.532Z,28.27
2018-03-04T08:55:24.572Z,30.70
2018-03-04T08:56:27.105Z,29.20
2018-03-04T08:57:29.602Z,29.15
2018-03-04T08:58:32.902Z,28.27
2018-03-04T08:59:36.152Z,28.15
2018-03-04T09:00:39.408Z,29.27
2018-03-04T09:01:41.912Z,29.17
2018-03-04T09:02:45.174Z,26.92
2018-03-04T09:03:47.662Z,28.90
2018-03-04T09:04:50.139Z,27.83
2018-03-04T09:05:52.631Z,27.20
2018-03-04T09:06:55.985Z,26.58
2018-03-04T09:07:58.524Z,27.50
2018-03-04T09:09:01.019Z,28.02
2018-03-04T09:10:03.519Z,27.85
2018-03-04T09:11:06.012Z,27.30
2018-03-04T09:12:08.488Z,28.23
2018-03-04T09:13:10.980Z,26.20
2018-03-04T09:14:13.466Z,26.70
2018-03-04T09:15:15.943Z,26.70
2018-03-04T09:16:18.456Z,26.48
2018-03-04T09:17:21.003Z,26.85
2018-03-04T09:18:23.531Z,25.40
2018-03-04T09:19:26.016Z,26.60
2018-03-04T09:20:28.500Z,27.87
2018-03-04T09:21:31.727Z,27.20
2018-03-04T09:22:35.714Z,25.92
2018-03-04T09:23:38.272Z,26.55
2018-03-04T09:24:40.750Z,27.37
2018-03-04T09:25:43.262Z,27.20
2018-03-04T09:26:45.741Z,25.00
2018-03-04T09:27:48.229Z,27.13
2018-03-04T09:28:51.490Z,26.48
2018-03-04T09:29:53.967Z,25.62
2018-03-04T09:30:56.473Z,26.50
2018-03-04T09:31:58.988Z,27.23
2018-03-04T09:33:01.492Z,26.30
2018-03-04T09:34:03.969Z,27.02
2018-03-04T09:35:06.503Z,24.67
2018-03-04T09:36:10.478Z,27.92
2018-03-04T09:37:13.714Z,27.20
2018-03-04T09:38:16.987Z,25.25
2018-03-04T09:39:20.246Z,27.50
2018-03-04T09:40:23.513Z,25.48
2018-03-04T09:41:26.045Z,27.08
2018-03-04T09:42:28.522Z,28.67
2018-03-04T09:43:31.795Z,25.48
2018-03-04T09:44:34.281Z,26.00
2018-03-04T09:45:37.565Z,27.48
2018-03-04T09:46:40.079Z,26.20
2018-03-04T09:47:42.575Z,27.37
2018-03-04T09:48:45.801Z,26.92
2018-03-04T09:49:49.062Z,26.10
2018-03-04T09:50:52.287Z,26.92
2018-03-04T09:51:55.584Z,27.73
2018-03-04T09:52:58.088Z,26.73
2018-03-04T09:54:00.565Z,27.30
2018-03-04T09:55:03.043Z,27.58
2018-03-04T09:56:05.547Z,27.83
2018-03-04T09:57:08.807Z,27.15
2018-03-04T09:58:11.388Z,26.30
2018-03-04T09:59:13.963Z,28.15
2018-03-04T10:00:16.541Z,27.75
2018-03-04T10:01:19.827Z,26.58
2018-03-04T10:02:22.360Z,26.70
2018-03-04T10:03:24.908Z,26.00
2018-03-04T10:04:27.377Z,28.38
2018-03-04T10:05:29.907Z,28.10
2018-03-04T10:06:32.378Z,27.10
2018-03-04T10:07:34.898Z,27.92
2018-03-04T10:08:37.405Z,27.77
2018-03-04T10:09:39.911Z,29.15
2018-03-04T10:10:43.178Z,29.23
2018-03-04T10:11:45.724Z,27.15
2018-03-04T10:12:48.219Z,28.40
2018-03-04T10:13:50.774Z,29.30
2018-03-04T10:14:53.297Z,28.40
2018-03-04T10:15:55.762Z,28.67
2018-03-04T10:16:58.251Z,28.50
2018-03-04T10:18:00.773Z,28.98
2018-03-04T10:19:03.285Z,29.35
2018-03-04T10:20:06.117Z,35.80
2018-03-04T10:21:08.600Z,30.42
2018-03-04T10:22:11.851Z,29.17
2018-03-04T10:23:15.115Z,29.15
2018-03-04T10:24:17.605Z,29.10
2018-03-04T10:25:20.402Z,29.80
2018-03-04T10:26:22.910Z,28.87
2018-03-04T10:27:25.463Z,30.25
2018-03-04T10:28:27.946Z,28.50
2018-03-04T10:29:31.227Z,27.80
2018-03-04T10:30:33.742Z,29.70
2018-03-04T10:31:36.833Z,29.95
2018-03-04T10:32:39.391Z,29.73
2018-03-04T10:33:41.875Z,28.62
2018-03-04T10:34:44.354Z,28.52
2018-03-04T10:35:46.861Z,29.95
2018-03-04T10:36:50.115Z,30.95
2018-03-04T10:37:52.654Z,30.73
2018-03-04T10:38:55.130Z,27.50
2018-03-04T10:39:57.681Z,29.05
2018-03-04T10:41:00.207Z,29.90
2018-03-04T10:42:02.771Z,29.73
2018-03-04T10:43:05.279Z,29.23
2018-03-04T10:44:07.754Z,29.92
2018-03-04T10:45:11.007Z,28.42
2018-03-04T10:46:14.265Z,29.05
2018-03-04T10:47:16.809Z,29.02
2018-03-04T10:48:19.337Z,31.48
2018-03-04T10:49:21.868Z,29.73
2018-03-04T10:50:24.355Z,31.98
2018-03-04T10:51:27.583Z,31.15
2018-03-04T10:52:30.184Z,30.75
2018-03-04T10:53:33.094Z,29.30
2018-03-04T10:54:36.378Z,30.30
2018-03-04T10:55:39.616Z,29.05
2018-03-04T10:56:42.102Z,30.20
2018-03-04T10:57:44.568Z,29.30
2018-03-04T10:58:47.025Z,30.58
2018-03-04T10:59:50.770Z,30.60
2018-03-04T11:02:41.980Z,29.70
2018-03-04T11:03:46.213Z,30.77
2018-03-04T11:04:48.719Z,31.20
2018-03-04T11:05:51.269Z,30.55
2018-03-04T11:06:53.770Z,31.12
2018-03-04T11:07:56.330Z,29.20
2018-03-04T11:08:58.811Z,30.10
2018-03-04T11:10:01.286Z,30.45
2018-03-04T11:11:03.805Z,30.98
2018-03-04T11:12:06.266Z,30.70
2018-03-04T11:13:09.138Z,30.60
2018-03-04T11:14:11.634Z,29.20
2018-03-04T11:15:14.130Z,28.45
2018-03-04T11:16:17.356Z,31.35
2018-03-04T11:17:19.825Z,30.20
2018-03-04T11:18:22.335Z,31.12
2018-03-04T11:19:24.836Z,31.52
2018-03-04T11:20:27.305Z,31.05
2018-03-04T11:21:29.818Z,32.50
2018-03-04T11:22:32.326Z,29.80
2018-03-04T11:23:35.627Z,31.33
2018-03-04T11:24:38.172Z,30.42
2018-03-04T11:25:40.721Z,31.67
2018-03-04T11:26:44.038Z,29.40
2018-03-04T11:27:46.518Z,31.40
2018-03-04T11:28:49.168Z,33.45
2018-03-04T11:29:51.640Z,30.90
2018-03-04T11:32:03.857Z,31.55
2018-03-04T11:33:07.151Z,28.80
2018-03-04T11:34:09.685Z,29.90
2018-03-04T11:35:12.214Z,31.67
2018-03-04T11:36:14.714Z,31.62
2018-03-04T11:37:17.203Z,30.60
2018-03-04T11:38:20.462Z,32.40
2018-03-04T11:39:22.940Z,32.22
2018-03-04T11:40:25.437Z,32.40
2018-03-04T11:41:27.907Z,30.95
2018-03-04T11:42:30.386Z,33.70
2018-03-04T11:43:32.846Z,31.83
2018-03-04T11:44:35.336Z,31.77
2018-03-04T11:45:37.869Z,33.15
2018-03-04T11:46:40.334Z,32.75
2018-03-04T11:47:42.819Z,33.67
2018-03-04T11:48:45.309Z,37.63
2018-03-04T11:49:48.565Z,44.15
2018-03-04T11:50:51.090Z,34.85
2018-03-04T11:51:53.586Z,38.53
2018-03-04T11:52:56.069Z,32.88
2018-03-04T11:53:58.536Z,32.42
2018-03-04T11:55:01.851Z,38.30
2018-03-04T11:56:04.348Z,35.28
2018-03-04T11:57:06.981Z,37.50
2018-03-04T11:58:09.479Z,34.90
2018-03-04T11:59:11.935Z,33.80
2018-03-04T12:00:14.415Z,35.83
2018-03-04T12:01:17.668Z,35.65
2018-03-04T12:02:20.898Z,34.00
2018-03-04T12:03:24.167Z,32.08
2018-03-04T12:04:26.650Z,32.63
2018-03-04T12:05:29.153Z,31.90
2018-03-04T12:06:31.621Z,32.80
2018-03-04T12:07:34.921Z,34.17
2018-03-04T12:08:37.405Z,33.45
2018-03-04T12:09:39.950Z,33.72
2018-03-04T12:10:43.160Z,33.35
2018-03-04T12:11:45.666Z,37.20
2018-03-04T12:12:48.238Z,33.55
2018-03-04T12:13:50.754Z,32.50
2018-03-04T12:14:53.260Z,32.85
2018-03-04T12:15:56.533Z,32.85
2018-03-04T12:16:59.010Z,31.85
2018-03-04T12:18:01.482Z,32.15
2018-03-04T12:19:04.002Z,37.05
2018-03-04T12:20:06.540Z,45.50
2018-03-04T12:21:09.179Z,35.03
2018-03-04T12:22:11.676Z,48.40
2018-03-04T12:23:14.173Z,34.70
2018-03-04T12:24:17.414Z,33.97
2018-03-04T12:25:19.874Z,33.13
2018-03-04T12:26:22.416Z,34.40
2018-03-04T12:27:24.882Z,33.33
2018-03-04T12:28:27.391Z,33.05
2018-03-04T12:29:30.096Z,33.80
2018-03-04T12:30:32.576Z,36.03
2018-03-04T12:31:35.846Z,32.38
2018-03-04T12:32:38.356Z,33.05
2018-03-04T12:33:41.620Z,33.28
2018-03-04T12:34:44.126Z,33.83
2018-03-04T12:35:46.665Z,33.15
2018-03-04T12:36:49.143Z,35.38
2018-03-04T12:37:51.731Z,32.70
2018-03-04T12:38:54.280Z,32.50
2018-03-04T12:39:56.809Z,34.78
2018-03-04T12:40:59.277Z,35.00
2018-03-04T12:42:01.757Z,31.60
2018-03-04T12:43:04.249Z,32.78
2018-03-04T12:44:06.822Z,34.95
2018-03-04T12:45:09.346Z,34.20
2018-03-04T12:46:11.903Z,34.65
2018-03-04T12:47:14.450Z,35.83
2018-03-04T12:48:16.943Z,34.28
2018-03-04T12:49:20.207Z,33.08
2018-03-04T12:50:23.491Z,33.92
2018-03-04T12:51:25.962Z,31.87
2018-03-04T12:52:29.272Z,33.10
2018-03-04T12:53:31.730Z,32.13
2018-03-04T12:54:35.007Z,34.85
2018-03-04T12:55:37.499Z,32.92
2018-03-04T12:56:39.988Z,32.50
2018-03-04T12:57:43.261Z,32.35
2018-03-04T12:58:46.519Z,33.58
2018-03-04T12:59:49.014Z,33.28
2018-03-04T13:00:52.278Z,32.15
2018-03-04T13:01:55.548Z,33.78
2018-03-04T13:02:58.052Z,32.22
2018-03-04T13:04:01.324Z,33.63
2018-03-04T13:05:03.843Z,32.92
2018-03-04T13:06:06.334Z,33.40
2018-03-04T13:07:09.612Z,33.33
2018-03-04T13:08:12.133Z,34.13
2018-03-04T13:09:14.681Z,32.22
2018-03-04T13:10:17.188Z,33.60
2018-03-04T13:11:19.661Z,32.33
2018-03-04T13:12:22.154Z,33.58
2018-03-04T13:13:24.661Z,32.53
2018-03-04T13:14:27.216Z,32.30
2018-03-04T13:15:29.687Z,32.08
2018-03-04T13:16:32.955Z,33.60
2018-03-04T13:17:35.450Z,33.92
2018-03-04T13:18:38.685Z,32.95
2018-03-04T13:19:41.167Z,32.33
2018-03-04T13:20:43.673Z,31.75
2018-03-04T13:21:46.337Z,30.85
2018-03-04T13:22:48.824Z,31.30
2018-03-04T13:23:51.308Z,31.95
2018-03-04T13:24:54.574Z,31.35
2018-03-04T13:25:57.823Z,32.00
2018-03-04T13:27:00.356Z,33.15
2018-03-04T13:28:02.843Z,33.65
2018-03-04T13:29:07.172Z,32.20
2018-03-04T13:30:09.678Z,33.17
2018-03-04T13:31:12.210Z,32.47